sensor_id;sensor_type;location;lat;lon;timestamp;P1;durP1;ratioP1;P2;durP2;ratioP2
23406;SDS011;11876;53.438;18.942;2022-08-06T00:02:09;10.45;;;8.93;;
23406;SDS011;11876;53.438;18.942;2022-08-06T00:07:12;10.20;;;8.98;;
23406;SDS011;11876;53.438;18.942;2022-08-06T00:12:23;9.82;;;8.88;;
23406;SDS011;11876;53.438;18.942;2022-08-06T00:17:30;10.00;;;9.02;;
23406;SDS011;11876;53.438;18.942;2022-08-06T00:22:33;10.00;;;9.00;;
23406;SDS011;11876;53.438;18.942;2022-08-06T00:27:37;8.85;;;8.00;;
23406;SDS011;11876;53.438;18.942;2022-08-06T00:32:43;9.68;;;8.88;;
23406;SDS011;11876;53.438;18.942;2022-08-06T00:37:53;9.15;;;8.15;;
23406;SDS011;11876;53.438;18.942;2022-08-06T00:43:01;6.55;;;5.95;;
23406;SDS011;11876;53.438;18.942;2022-08-06T00:48:09;9.27;;;8.38;;
23406;SDS011;11876;53.438;18.942;2022-08-06T00:53:32;17.88;;;8.52;;
23406;SDS011;11876;53.438;18.942;2022-08-06T00:58:36;9.30;;;8.40;;
23406;SDS011;11876;53.438;18.942;2022-08-06T01:03:41;9.35;;;8.35;;
23406;SDS011;11876;53.438;18.942;2022-08-06T01:08:52;10.57;;;9.48;;
23406;SDS011;11876;53.438;18.942;2022-08-06T01:13:55;10.50;;;9.55;;
23406;SDS011;11876;53.438;18.942;2022-08-06T01:19:50;9.52;;;8.65;;
23406;SDS011;11876;53.438;18.942;2022-08-06T01:31:01;10.77;;;9.53;;
23406;SDS011;11876;53.438;18.942;2022-08-06T01:36:09;10.43;;;9.40;;
23406;SDS011;11876;53.438;18.942;2022-08-06T01:41:19;11.43;;;10.32;;
23406;SDS011;11876;53.438;18.942;2022-08-06T01:47:07;9.90;;;8.93;;
23406;SDS011;11876;53.438;18.942;2022-08-06T01:52:17;10.70;;;9.63;;
23406;SDS011;11876;53.438;18.942;2022-08-06T01:57:31;11.18;;;9.63;;
23406;SDS011;11876;53.438;18.942;2022-08-06T02:02:58;9.57;;;8.52;;
23406;SDS011;11876;53.438;18.942;2022-08-06T02:08:04;11.57;;;8.00;;
23406;SDS011;11876;53.438;18.942;2022-08-06T02:13:30;10.82;;;7.70;;
23406;SDS011;11876;53.438;18.942;2022-08-06T02:18:44;6.70;;;6.10;;
23406;SDS011;11876;53.438;18.942;2022-08-06T02:23:51;7.70;;;5.35;;
23406;SDS011;11876;53.438;18.942;2022-08-06T02:28:54;6.50;;;4.72;;
23406;SDS011;11876;53.438;18.942;2022-08-06T02:33:59;6.43;;;5.03;;
23406;SDS011;11876;53.438;18.942;2022-08-06T02:39:22;5.63;;;4.40;;
23406;SDS011;11876;53.438;18.942;2022-08-06T02:50:40;6.97;;;4.90;;
23406;SDS011;11876;53.438;18.942;2022-08-06T02:55:46;7.85;;;4.65;;
23406;SDS011;11876;53.438;18.942;2022-08-06T03:00:51;5.88;;;4.10;;
23406;SDS011;11876;53.438;18.942;2022-08-06T03:05:56;5.57;;;4.18;;
23406;SDS011;11876;53.438;18.942;2022-08-06T03:11:01;24.58;;;5.75;;
23406;SDS011;11876;53.438;18.942;2022-08-06T03:16:05;5.20;;;4.07;;
23406;SDS011;11876;53.438;18.942;2022-08-06T03:21:24;14.85;;;4.43;;
23406;SDS011;11876;53.438;18.942;2022-08-06T03:26:38;5.35;;;4.32;;
23406;SDS011;11876;53.438;18.942;2022-08-06T03:31:42;3.63;;;3.33;;
23406;SDS011;11876;53.438;18.942;2022-08-06T03:37:08;5.30;;;3.50;;
23406;SDS011;11876;53.438;18.942;2022-08-06T03:42:17;5.30;;;3.90;;
23406;SDS011;11876;53.438;18.942;2022-08-06T03:47:37;5.47;;;3.60;;
23406;SDS011;11876;53.438;18.942;2022-08-06T03:53:13;10.05;;;3.97;;
23406;SDS011;11876;53.438;18.942;2022-08-06T03:58:25;7.70;;;3.78;;
23406;SDS011;11876;53.438;18.942;2022-08-06T04:03:29;5.47;;;3.70;;
23406;SDS011;11876;53.438;18.942;2022-08-06T04:08:40;8.13;;;4.03;;
23406;SDS011;11876;53.438;18.942;2022-08-06T04:13:48;5.90;;;4.50;;
23406;SDS011;11876;53.438;18.942;2022-08-06T04:19:09;5.57;;;2.92;;
23406;SDS011;11876;53.438;18.942;2022-08-06T04:24:17;6.60;;;2.58;;
23406;SDS011;11876;53.438;18.942;2022-08-06T04:29:20;4.45;;;2.40;;
23406;SDS011;11876;53.438;18.942;2022-08-06T04:34:24;4.53;;;2.33;;
23406;SDS011;11876;53.438;18.942;2022-08-06T04:39:29;4.20;;;1.88;;
23406;SDS011;11876;53.438;18.942;2022-08-06T04:44:48;4.18;;;1.60;;
23406;SDS011;11876;53.438;18.942;2022-08-06T04:50:00;6.28;;;1.67;;
23406;SDS011;11876;53.438;18.942;2022-08-06T04:55:10;3.58;;;1.40;;
23406;SDS011;11876;53.438;18.942;2022-08-06T05:00:28;3.13;;;1.30;;
23406;SDS011;11876;53.438;18.942;2022-08-06T05:05:54;4.30;;;1.92;;
23406;SDS011;11876;53.438;18.942;2022-08-06T05:11:08;2.38;;;1.48;;
23406;SDS011;11876;53.438;18.942;2022-08-06T05:16:59;2.85;;;1.30;;
23406;SDS011;11876;53.438;18.942;2022-08-06T05:22:08;3.58;;;1.23;;
23406;SDS011;11876;53.438;18.942;2022-08-06T05:27:22;3.40;;;1.23;;
23406;SDS011;11876;53.438;18.942;2022-08-06T05:32:41;2.65;;;1.00;;
23406;SDS011;11876;53.438;18.942;2022-08-06T05:37:54;1.92;;;1.15;;
23406;SDS011;11876;53.438;18.942;2022-08-06T05:43:06;2.75;;;0.88;;
23406;SDS011;11876;53.438;18.942;2022-08-06T05:48:10;2.28;;;0.85;;
23406;SDS011;11876;53.438;18.942;2022-08-06T05:53:21;4.10;;;1.10;;
23406;SDS011;11876;53.438;18.942;2022-08-06T05:58:53;3.10;;;0.80;;
23406;SDS011;11876;53.438;18.942;2022-08-06T06:03:58;2.00;;;0.90;;
23406;SDS011;11876;53.438;18.942;2022-08-06T06:09:05;1.88;;;0.80;;
23406;SDS011;11876;53.438;18.942;2022-08-06T06:14:16;1.40;;;0.75;;
23406;SDS011;11876;53.438;18.942;2022-08-06T06:24:57;0.90;;;0.55;;
23406;SDS011;11876;53.438;18.942;2022-08-06T06:30:13;1.70;;;0.68;;
23406;SDS011;11876;53.438;18.942;2022-08-06T06:41:03;1.25;;;0.63;;
23406;SDS011;11876;53.438;18.942;2022-08-06T06:46:23;1.23;;;0.68;;
23406;SDS011;11876;53.438;18.942;2022-08-06T06:51:43;2.30;;;0.68;;
23406;SDS011;11876;53.438;18.942;2022-08-06T06:57:04;2.53;;;0.65;;
23406;SDS011;11876;53.438;18.942;2022-08-06T07:02:19;2.10;;;0.60;;
23406;SDS011;11876;53.438;18.942;2022-08-06T07:07:33;1.25;;;0.60;;
23406;SDS011;11876;53.438;18.942;2022-08-06T07:12:38;1.85;;;0.70;;
23406;SDS011;11876;53.438;18.942;2022-08-06T07:17:42;4.22;;;1.58;;
23406;SDS011;11876;53.438;18.942;2022-08-06T07:23:06;4.65;;;0.85;;
23406;SDS011;11876;53.438;18.942;2022-08-06T07:28:30;2.47;;;0.60;;
23406;SDS011;11876;53.438;18.942;2022-08-06T07:33:35;2.60;;;0.75;;
23406;SDS011;11876;53.438;18.942;2022-08-06T07:39:02;5.30;;;1.58;;
23406;SDS011;11876;53.438;18.942;2022-08-06T07:44:06;3.80;;;1.00;;
23406;SDS011;11876;53.438;18.942;2022-08-06T07:49:14;2.53;;;0.82;;
23406;SDS011;11876;53.438;18.942;2022-08-06T07:54:18;3.85;;;0.98;;
23406;SDS011;11876;53.438;18.942;2022-08-06T07:59:35;3.80;;;0.90;;
23406;SDS011;11876;53.438;18.942;2022-08-06T08:04:45;1.42;;;0.50;;
23406;SDS011;11876;53.438;18.942;2022-08-06T08:10:08;2.50;;;0.90;;
23406;SDS011;11876;53.438;18.942;2022-08-06T08:15:11;1.80;;;0.40;;
23406;SDS011;11876;53.438;18.942;2022-08-06T08:20:23;6.45;;;0.85;;
23406;SDS011;11876;53.438;18.942;2022-08-06T08:25:34;1.10;;;0.68;;
23406;SDS011;11876;53.438;18.942;2022-08-06T08:30:42;2.97;;;0.80;;
23406;SDS011;11876;53.438;18.942;2022-08-06T08:35:50;2.72;;;1.23;;
23406;SDS011;11876;53.438;18.942;2022-08-06T08:41:13;24.35;;;2.30;;
23406;SDS011;11876;53.438;18.942;2022-08-06T08:46:23;7.07;;;0.80;;
23406;SDS011;11876;53.438;18.942;2022-08-06T08:51:33;1.27;;;0.50;;
23406;SDS011;11876;53.438;18.942;2022-08-06T08:56:44;2.20;;;0.70;;
23406;SDS011;11876;53.438;18.942;2022-08-06T09:02:09;2.08;;;0.68;;
23406;SDS011;11876;53.438;18.942;2022-08-06T09:07:14;1.05;;;0.50;;
23406;SDS011;11876;53.438;18.942;2022-08-06T09:12:20;2.92;;;0.60;;
23406;SDS011;11876;53.438;18.942;2022-08-06T09:17:36;2.25;;;0.90;;
23406;SDS011;11876;53.438;18.942;2022-08-06T09:22:59;1.15;;;0.55;;
23406;SDS011;11876;53.438;18.942;2022-08-06T09:28:09;4.45;;;0.47;;
23406;SDS011;11876;53.438;18.942;2022-08-06T09:33:13;0.70;;;0.45;;
23406;SDS011;11876;53.438;18.942;2022-08-06T09:38:49;3.00;;;0.70;;
23406;SDS011;11876;53.438;18.942;2022-08-06T09:43:59;2.88;;;0.93;;
23406;SDS011;11876;53.438;18.942;2022-08-06T09:49:49;3.15;;;0.60;;
23406;SDS011;11876;53.438;18.942;2022-08-06T09:55:01;2.35;;;0.73;;
23406;SDS011;11876;53.438;18.942;2022-08-06T10:00:24;18.80;;;1.52;;
23406;SDS011;11876;53.438;18.942;2022-08-06T10:05:34;2.25;;;0.70;;
23406;SDS011;11876;53.438;18.942;2022-08-06T10:10:51;2.13;;;0.77;;
23406;SDS011;11876;53.438;18.942;2022-08-06T10:15:56;8.20;;;1.00;;
23406;SDS011;11876;53.438;18.942;2022-08-06T10:21:06;7.05;;;1.02;;
23406;SDS011;11876;53.438;18.942;2022-08-06T10:26:19;4.53;;;1.38;;
23406;SDS011;11876;53.438;18.942;2022-08-06T10:31:32;41.78;;;4.90;;
23406;SDS011;11876;53.438;18.942;2022-08-06T10:36:40;8.25;;;1.00;;
23406;SDS011;11876;53.438;18.942;2022-08-06T10:41:49;7.47;;;1.02;;
23406;SDS011;11876;53.438;18.942;2022-08-06T10:47:07;15.45;;;1.60;;
23406;SDS011;11876;53.438;18.942;2022-08-06T10:52:18;14.35;;;2.20;;
23406;SDS011;11876;53.438;18.942;2022-08-06T10:57:26;0.73;;;0.60;;
23406;SDS011;11876;53.438;18.942;2022-08-06T11:18:50;42.75;;;2.85;;
23406;SDS011;11876;53.438;18.942;2022-08-06T11:24:03;17.60;;;1.38;;
23406;SDS011;11876;53.438;18.942;2022-08-06T11:29:11;45.90;;;3.22;;
23406;SDS011;11876;53.438;18.942;2022-08-06T11:34:17;1.30;;;0.70;;
23406;SDS011;11876;53.438;18.942;2022-08-06T11:40:03;6.38;;;1.08;;
23406;SDS011;11876;53.438;18.942;2022-08-06T11:45:08;2.65;;;0.80;;
23406;SDS011;11876;53.438;18.942;2022-08-06T11:50:32;28.15;;;3.22;;
23406;SDS011;11876;53.438;18.942;2022-08-06T11:56:02;1.77;;;0.50;;
23406;SDS011;11876;53.438;18.942;2022-08-06T12:01:05;14.65;;;1.10;;
23406;SDS011;11876;53.438;18.942;2022-08-06T12:06:27;1.83;;;0.98;;
23406;SDS011;11876;53.438;18.942;2022-08-06T12:11:30;2.72;;;0.60;;
23406;SDS011;11876;53.438;18.942;2022-08-06T12:16:37;28.97;;;2.77;;
23406;SDS011;11876;53.438;18.942;2022-08-06T12:22:01;3.78;;;0.68;;
23406;SDS011;11876;53.438;18.942;2022-08-06T12:27:07;2.13;;;0.82;;
23406;SDS011;11876;53.438;18.942;2022-08-06T12:32:23;71.40;;;4.68;;
23406;SDS011;11876;53.438;18.942;2022-08-06T12:37:33;5.53;;;0.70;;
23406;SDS011;11876;53.438;18.942;2022-08-06T12:42:49;1.55;;;0.60;;
23406;SDS011;11876;53.438;18.942;2022-08-06T12:47:56;6.20;;;0.70;;
23406;SDS011;11876;53.438;18.942;2022-08-06T12:53:15;4.55;;;0.95;;
23406;SDS011;11876;53.438;18.942;2022-08-06T12:58:33;72.97;;;6.38;;
23406;SDS011;11876;53.438;18.942;2022-08-06T13:03:46;8.05;;;0.90;;
23406;SDS011;11876;53.438;18.942;2022-08-06T13:09:05;6.63;;;0.68;;
23406;SDS011;11876;53.438;18.942;2022-08-06T13:14:11;1.88;;;0.50;;
23406;SDS011;11876;53.438;18.942;2022-08-06T13:19:19;4.45;;;0.70;;
23406;SDS011;11876;53.438;18.942;2022-08-06T13:24:28;2.60;;;0.45;;
23406;SDS011;11876;53.438;18.942;2022-08-06T13:29:36;1.48;;;0.45;;
23406;SDS011;11876;53.438;18.942;2022-08-06T13:35:00;8.05;;;0.93;;
23406;SDS011;11876;53.438;18.942;2022-08-06T13:40:18;1.35;;;0.50;;
23406;SDS011;11876;53.438;18.942;2022-08-06T13:45:32;2.70;;;0.60;;
23406;SDS011;11876;53.438;18.942;2022-08-06T13:50:54;4.47;;;0.60;;
23406;SDS011;11876;53.438;18.942;2022-08-06T13:55:57;5.40;;;0.77;;
23406;SDS011;11876;53.438;18.942;2022-08-06T14:01:04;4.38;;;0.57;;
23406;SDS011;11876;53.438;18.942;2022-08-06T14:06:08;8.90;;;0.95;;
23406;SDS011;11876;53.438;18.942;2022-08-06T14:11:12;1.30;;;0.40;;
23406;SDS011;11876;53.438;18.942;2022-08-06T14:16:16;2.72;;;0.40;;
23406;SDS011;11876;53.438;18.942;2022-08-06T14:21:19;1.73;;;0.30;;
23406;SDS011;11876;53.438;18.942;2022-08-06T14:26:23;1.63;;;0.50;;
23406;SDS011;11876;53.438;18.942;2022-08-06T14:31:28;3.10;;;0.50;;
23406;SDS011;11876;53.438;18.942;2022-08-06T14:36:53;7.57;;;1.50;;
23406;SDS011;11876;53.438;18.942;2022-08-06T14:41:56;1.58;;;0.38;;
23406;SDS011;11876;53.438;18.942;2022-08-06T14:47:18;2.15;;;0.20;;
23406;SDS011;11876;53.438;18.942;2022-08-06T14:52:41;2.88;;;0.35;;
23406;SDS011;11876;53.438;18.942;2022-08-06T14:57:44;0.70;;;0.40;;
23406;SDS011;11876;53.438;18.942;2022-08-06T15:03:06;2.50;;;0.50;;
23406;SDS011;11876;53.438;18.942;2022-08-06T15:08:15;11.15;;;1.35;;
23406;SDS011;11876;53.438;18.942;2022-08-06T15:13:20;1.83;;;0.50;;
23406;SDS011;11876;53.438;18.942;2022-08-06T15:18:37;1.95;;;0.40;;
23406;SDS011;11876;53.438;18.942;2022-08-06T15:24:01;2.20;;;0.40;;
23406;SDS011;11876;53.438;18.942;2022-08-06T15:29:04;29.42;;;3.38;;
23406;SDS011;11876;53.438;18.942;2022-08-06T15:34:15;1.95;;;0.30;;
23406;SDS011;11876;53.438;18.942;2022-08-06T15:39:27;1.33;;;0.50;;
23406;SDS011;11876;53.438;18.942;2022-08-06T15:44:51;11.73;;;1.75;;
23406;SDS011;11876;53.438;18.942;2022-08-06T15:49:56;5.20;;;0.80;;
23406;SDS011;11876;53.438;18.942;2022-08-06T15:55:05;5.78;;;2.78;;
23406;SDS011;11876;53.438;18.942;2022-08-06T16:00:17;22.38;;;2.88;;
23406;SDS011;11876;53.438;18.942;2022-08-06T16:05:23;3.67;;;2.45;;
23406;SDS011;11876;53.438;18.942;2022-08-06T16:10:47;7.65;;;0.73;;
23406;SDS011;11876;53.438;18.942;2022-08-06T16:15:52;15.43;;;1.20;;
23406;SDS011;11876;53.438;18.942;2022-08-06T16:20:55;3.50;;;0.90;;
23406;SDS011;11876;53.438;18.942;2022-08-06T16:26:04;5.45;;;0.90;;
23406;SDS011;11876;53.438;18.942;2022-08-06T16:31:27;14.98;;;1.20;;
23406;SDS011;11876;53.438;18.942;2022-08-06T16:36:48;2.20;;;0.43;;
23406;SDS011;11876;53.438;18.942;2022-08-06T16:41:52;0.88;;;0.40;;
23406;SDS011;11876;53.438;18.942;2022-08-06T16:47:00;2.28;;;0.40;;
23406;SDS011;11876;53.438;18.942;2022-08-06T16:52:06;1.85;;;0.30;;
23406;SDS011;11876;53.438;18.942;2022-08-06T16:57:30;1.05;;;0.45;;
23406;SDS011;11876;53.438;18.942;2022-08-06T17:02:53;4.93;;;1.40;;
23406;SDS011;11876;53.438;18.942;2022-08-06T17:07:55;2.30;;;0.52;;
23406;SDS011;11876;53.438;18.942;2022-08-06T17:12:59;2.40;;;0.40;;
23406;SDS011;11876;53.438;18.942;2022-08-06T17:18:06;3.70;;;1.13;;
23406;SDS011;11876;53.438;18.942;2022-08-06T17:23:12;0.40;;;0.30;;
23406;SDS011;11876;53.438;18.942;2022-08-06T17:28:15;2.35;;;0.65;;
23406;SDS011;11876;53.438;18.942;2022-08-06T17:33:18;3.25;;;0.50;;
23406;SDS011;11876;53.438;18.942;2022-08-06T17:38:23;8.27;;;1.10;;
23406;SDS011;11876;53.438;18.942;2022-08-06T17:43:27;4.95;;;0.98;;
23406;SDS011;11876;53.438;18.942;2022-08-06T17:48:50;2.80;;;0.73;;
23406;SDS011;11876;53.438;18.942;2022-08-06T17:53:55;1.60;;;0.70;;
23406;SDS011;11876;53.438;18.942;2022-08-06T17:59:18;1.92;;;1.02;;
23406;SDS011;11876;53.438;18.942;2022-08-06T18:04:23;1.58;;;0.70;;
23406;SDS011;11876;53.438;18.942;2022-08-06T18:09:33;2.92;;;1.10;;
23406;SDS011;11876;53.438;18.942;2022-08-06T18:14:56;13.43;;;1.00;;
23406;SDS011;11876;53.438;18.942;2022-08-06T18:19:59;6.05;;;1.00;;
23406;SDS011;11876;53.438;18.942;2022-08-06T18:25:02;15.10;;;1.60;;
23406;SDS011;11876;53.438;18.942;2022-08-06T18:30:07;11.75;;;1.27;;
23406;SDS011;11876;53.438;18.942;2022-08-06T18:35:30;8.32;;;1.55;;
23406;SDS011;11876;53.438;18.942;2022-08-06T18:40:53;10.48;;;1.58;;
23406;SDS011;11876;53.438;18.942;2022-08-06T18:46:01;66.47;;;6.68;;
23406;SDS011;11876;53.438;18.942;2022-08-06T18:51:04;4.57;;;1.27;;
23406;SDS011;11876;53.438;18.942;2022-08-06T18:56:09;5.65;;;1.30;;
23406;SDS011;11876;53.438;18.942;2022-08-06T19:01:17;4.80;;;1.30;;
23406;SDS011;11876;53.438;18.942;2022-08-06T19:06:22;5.30;;;1.00;;
23406;SDS011;11876;53.438;18.942;2022-08-06T19:11:30;16.02;;;2.03;;
23406;SDS011;11876;53.438;18.942;2022-08-06T19:16:40;7.78;;;0.80;;
23406;SDS011;11876;53.438;18.942;2022-08-06T19:21:51;3.33;;;1.50;;
23406;SDS011;11876;53.438;18.942;2022-08-06T19:26:56;4.45;;;1.05;;
23406;SDS011;11876;53.438;18.942;2022-08-06T19:31:58;8.43;;;1.35;;
23406;SDS011;11876;53.438;18.942;2022-08-06T19:37:02;4.47;;;0.93;;
23406;SDS011;11876;53.438;18.942;2022-08-06T19:42:09;2.92;;;0.90;;
23406;SDS011;11876;53.438;18.942;2022-08-06T19:47:32;4.25;;;1.40;;
23406;SDS011;11876;53.438;18.942;2022-08-06T19:52:39;2.63;;;1.42;;
23406;SDS011;11876;53.438;18.942;2022-08-06T19:57:47;3.97;;;1.48;;
23406;SDS011;11876;53.438;18.942;2022-08-06T20:02:50;3.28;;;1.20;;
23406;SDS011;11876;53.438;18.942;2022-08-06T20:07:55;2.17;;;1.05;;
23406;SDS011;11876;53.438;18.942;2022-08-06T20:13:18;3.72;;;1.30;;
23406;SDS011;11876;53.438;18.942;2022-08-06T20:18:22;1.95;;;1.05;;
23406;SDS011;11876;53.438;18.942;2022-08-06T20:23:28;2.92;;;1.10;;
23406;SDS011;11876;53.438;18.942;2022-08-06T20:28:41;2.38;;;1.00;;
23406;SDS011;11876;53.438;18.942;2022-08-06T20:34:04;2.25;;;1.17;;
23406;SDS011;11876;53.438;18.942;2022-08-06T20:39:13;2.80;;;1.50;;
23406;SDS011;11876;53.438;18.942;2022-08-06T20:44:21;8.20;;;1.38;;
23406;SDS011;11876;53.438;18.942;2022-08-06T20:49:28;3.38;;;1.42;;
23406;SDS011;11876;53.438;18.942;2022-08-06T20:54:53;2.08;;;1.40;;
23406;SDS011;11876;53.438;18.942;2022-08-06T20:59:56;3.22;;;1.55;;
23406;SDS011;11876;53.438;18.942;2022-08-06T21:05:00;2.97;;;1.58;;
23406;SDS011;11876;53.438;18.942;2022-08-06T21:10:19;3.92;;;1.83;;
23406;SDS011;11876;53.438;18.942;2022-08-06T21:15:24;3.92;;;1.80;;
23406;SDS011;11876;53.438;18.942;2022-08-06T21:20:48;3.50;;;1.90;;
23406;SDS011;11876;53.438;18.942;2022-08-06T21:25:53;2.40;;;1.70;;
23406;SDS011;11876;53.438;18.942;2022-08-06T21:30:59;1.90;;;1.13;;
23406;SDS011;11876;53.438;18.942;2022-08-06T21:36:03;3.00;;;1.40;;
23406;SDS011;11876;53.438;18.942;2022-08-06T21:41:15;4.50;;;1.50;;
23406;SDS011;11876;53.438;18.942;2022-08-06T21:46:50;4.32;;;2.00;;
23406;SDS011;11876;53.438;18.942;2022-08-06T21:52:00;5.32;;;2.30;;
23406;SDS011;11876;53.438;18.942;2022-08-06T21:57:04;3.95;;;1.98;;
23406;SDS011;11876;53.438;18.942;2022-08-06T22:02:12;3.58;;;2.00;;
23406;SDS011;11876;53.438;18.942;2022-08-06T22:07:22;3.45;;;2.08;;
23406;SDS011;11876;53.438;18.942;2022-08-06T22:12:25;4.82;;;2.45;;
23406;SDS011;11876;53.438;18.942;2022-08-06T22:17:47;5.07;;;2.50;;
23406;SDS011;11876;53.438;18.942;2022-08-06T22:23:03;6.13;;;2.33;;
23406;SDS011;11876;53.438;18.942;2022-08-06T22:28:08;4.38;;;1.70;;
23406;SDS011;11876;53.438;18.942;2022-08-06T22:33:24;4.65;;;2.22;;
23406;SDS011;11876;53.438;18.942;2022-08-06T22:38:30;4.43;;;2.38;;
23406;SDS011;11876;53.438;18.942;2022-08-06T22:43:32;2.42;;;2.22;;
23406;SDS011;11876;53.438;18.942;2022-08-06T22:48:55;3.63;;;2.50;;
23406;SDS011;11876;53.438;18.942;2022-08-06T22:53:59;2.78;;;2.30;;
23406;SDS011;11876;53.438;18.942;2022-08-06T22:59:23;4.80;;;2.60;;
23406;SDS011;11876;53.438;18.942;2022-08-06T23:04:45;3.03;;;2.15;;
23406;SDS011;11876;53.438;18.942;2022-08-06T23:09:49;2.67;;;2.40;;
23406;SDS011;11876;53.438;18.942;2022-08-06T23:14:53;3.45;;;2.47;;
23406;SDS011;11876;53.438;18.942;2022-08-06T23:19:57;3.95;;;2.80;;
23406;SDS011;11876;53.438;18.942;2022-08-06T23:24:59;3.13;;;2.40;;
23406;SDS011;11876;53.438;18.942;2022-08-06T23:30:22;6.00;;;3.30;;
23406;SDS011;11876;53.438;18.942;2022-08-06T23:35:26;4.88;;;3.28;;
23406;SDS011;11876;53.438;18.942;2022-08-06T23:40:38;7.97;;;3.95;;
23406;SDS011;11876;53.438;18.942;2022-08-06T23:45:42;5.90;;;3.60;;
23406;SDS011;11876;53.438;18.942;2022-08-06T23:50:48;7.75;;;4.05;;
23406;SDS011;11876;53.438;18.942;2022-08-06T23:55:55;6.07;;;3.77;;
